Time;durP1;ratioP1;P1;durP2;ratioP2;P2;SDS_P1;SDS_P2;PMS_P1;PMS_P2;Temp;Humidity;BMP_temperature;BMP_pressure;BME280_temperature;BME280_humidity;BME280_pressure;Samples;Min_cycle;Max_cycle;Signal;HPM_P1;HPM_P2
2021/05/04 00:29:14;;;;;;;3.25;1.40;;;10.20;99.90;;;;;;12990671;22;20104;-46
2021/05/04 00:34:15;;;;;;;2.72;1.20;;;10.00;99.90;;;;;;13027957;22;20026;-46
2021/05/04 00:39:15;;;;;;;5.70;1.48;;;9.80;99.90;;;;;;13028156;22;20087;-47
2021/05/04 00:44:16;;;;;;;2.75;1.10;;;9.70;99.90;;;;;;13005939;22;20011;-46
2021/05/04 00:49:17;;;;;;;2.72;1.45;;;9.70;99.90;;;;;;13030989;22;20095;-47
2021/05/04 00:54:18;;;;;;;3.55;1.48;;;9.60;99.90;;;;;;13033271;22;20035;-46
2021/05/04 00:59:23;;;;;;;3.72;1.63;;;9.50;99.90;;;;;;13030463;22;20003;-47
2021/05/04 01:04:24;;;;;;;4.75;1.63;;;9.50;99.90;;;;;;13030824;22;20149;-46
2021/05/04 01:09:25;;;;;;;7.32;1.80;;;9.50;99.90;;;;;;13030429;22;20003;-46
2021/05/04 01:14:25;;;;;;;3.28;1.30;;;9.40;99.90;;;;;;13036984;22;20086;-47
2021/05/04 01:19:26;;;;;;;8.18;1.60;;;9.30;99.90;;;;;;13009586;22;20460;-46
2021/05/04 01:24:27;;;;;;;3.30;1.77;;;9.20;99.90;;;;;;13008329;22;20029;-47
2021/05/04 01:29:28;;;;;;;3.22;1.30;;;9.20;99.90;;;;;;13010377;22;20049;-47
2021/05/04 01:34:29;;;;;;;9.18;1.33;;;9.10;99.90;;;;;;13011424;22;20008;-47
2021/05/04 01:39:50;;;;;;;6.22;1.17;;;9.10;99.90;;;;;;12986096;22;20011;-47
2021/05/04 01:44:51;;;;;;;3.00;1.20;;;9.20;99.90;;;;;;13012898;22;20000;-47
2021/05/04 01:49:52;;;;;;;5.18;2.53;;;9.10;99.90;;;;;;13038034;22;19999;-47
2021/05/04 01:54:53;;;;;;;3.33;1.48;;;9.10;99.90;;;;;;13012696;22;20003;-47
2021/05/04 01:59:54;;;;;;;3.63;1.50;;;9.20;99.90;;;;;;13037304;22;20011;-47
2021/05/04 02:04:55;;;;;;;3.03;1.30;;;9.10;99.90;;;;;;12988966;22;20019;-47
2021/05/04 02:09:56;;;;;;;3.38;1.02;;;9.20;99.90;;;;;;12992600;22;20098;-47
2021/05/04 02:15:08;;;;;;;4.00;1.20;;;9.10;99.90;;;;;;12990336;22;20356;-47
2021/05/04 02:20:10;;;;;;;2.92;1.70;;;9.20;99.90;;;;;;13013577;22;20057;-47
2021/05/04 02:25:12;;;;;;;5.10;1.48;;;9.10;99.90;;;;;;13040123;22;20061;-48
2021/05/04 02:30:26;;;;;;;3.90;1.48;;;9.10;99.90;;;;;;12987603;22;20031;-48
2021/05/04 02:35:36;;;;;;;2.03;0.90;;;9.10;99.90;;;;;;12992894;22;20473;-48
2021/05/04 02:40:55;;;;;;;1.42;0.68;;;9.00;99.90;;;;;;12988604;22;20585;-48
2021/05/04 02:46:08;;;;;;;2.85;0.95;;;9.00;99.90;;;;;;12986647;22;20018;-48
2021/05/04 02:51:19;;;;;;;7.30;1.40;;;9.00;99.90;;;;;;12992675;22;20503;-48
2021/05/04 02:56:57;;;;;;;2.45;1.33;;;8.90;99.90;;;;;;13011269;22;20054;-48
2021/05/04 03:02:27;;;;;;;1.88;0.88;;;8.90;99.90;;;;;;13026643;22;20022;-48
2021/05/04 03:07:35;;;;;;;2.92;1.17;;;8.90;99.90;;;;;;13012187;22;20030;-48
2021/05/04 03:12:56;;;;;;;1.50;0.68;;;8.90;99.90;;;;;;12966647;22;20454;-48
2021/05/04 03:23:37;;;;;;;1.83;0.73;;;8.80;99.90;;;;;;13007435;22;20015;-48
2021/05/04 03:28:42;;;;;;;;;;;8.90;99.90;;;;;;13011481;22;20328;-48
2021/05/04 03:33:43;;;;;;;3.70;0.65;;;9.00;99.90;;;;;;13037985;22;19903;-48
2021/05/04 03:39:05;;;;;;;3.53;1.50;;;9.00;99.90;;;;;;12973189;22;20403;-48
2021/05/04 03:44:09;;;;;;;1.25;0.55;;;9.10;99.90;;;;;;12986655;22;20065;-48
2021/05/04 03:49:11;;;;;;;1.52;0.88;;;9.10;99.90;;;;;;13011847;22;20030;-48
2021/05/04 03:54:18;;;;;;;1.33;0.73;;;9.10;99.90;;;;;;13011374;22;20513;-48
2021/05/04 03:59:19;;;;;;;1.90;0.80;;;9.10;99.90;;;;;;13008845;22;20003;-48
2021/05/04 04:04:22;;;;;;;1.73;0.52;;;9.20;99.90;;;;;;13035251;22;20011;-48
2021/05/04 04:09:24;;;;;;;3.38;0.82;;;9.20;99.90;;;;;;12978996;22;20402;-48
2021/05/04 04:14:24;;;;;;;2.25;0.60;;;9.20;99.90;;;;;;13004093;22;20026;-48
2021/05/04 04:19:25;;;;;;;1.27;0.57;;;9.20;99.90;;;;;;13035328;22;20003;-48
2021/05/04 04:24:27;;;;;;;2.13;0.85;;;9.20;99.90;;;;;;12979952;22;20106;-48
2021/05/04 04:29:28;;;;;;;2.28;1.10;;;9.30;99.90;;;;;;12982623;22;20019;-48
2021/05/04 04:34:35;;;;;;;2.33;1.15;;;9.20;99.90;;;;;;12960612;22;20072;-48
2021/05/04 04:39:36;;;;;;;1.77;0.63;;;9.20;99.90;;;;;;13010590;22;20060;-48
2021/05/04 04:44:37;;;;;;;1.40;0.45;;;9.20;99.90;;;;;;12961116;22;20023;-48
2021/05/04 04:49:42;;;;;;;5.05;1.25;;;9.10;99.90;;;;;;12984115;22;20031;-49
2021/05/04 04:54:45;;;;;;;1.35;0.70;;;9.20;99.90;;;;;;13012441;22;20020;-49
2021/05/04 04:59:49;;;;;;;2.72;0.68;;;9.10;99.90;;;;;;13009862;22;20094;-48
2021/05/04 05:04:49;;;;;;;2.03;0.80;;;9.00;99.90;;;;;;13034709;22;20361;-49
2021/05/04 05:09:50;;;;;;;6.07;0.90;;;9.10;99.90;;;;;;13007547;22;20087;-49
2021/05/04 05:14:52;;;;;;;2.22;0.70;;;9.20;99.90;;;;;;12956672;22;20094;-48
2021/05/04 05:19:53;;;;;;;1.50;0.70;;;9.20;99.90;;;;;;13037142;22;20370;-49
2021/05/04 05:24:58;;;;;;;10.10;1.10;;;9.40;99.90;;;;;;12984898;22;20055;-49
2021/05/04 05:31:15;;;;;;;3.42;0.68;;;9.40;99.90;;;;;;12975638;22;851934;-49
2021/05/04 05:43:12;;;;;;;1.88;0.70;;;9.80;99.90;;;;;;13071445;22;20326;-49
2021/05/04 05:48:13;;;;;;;5.95;0.60;;;10.00;99.90;;;;;;13097145;22;20113;-49
2021/05/04 05:53:14;;;;;;;2.60;1.42;;;10.10;99.90;;;;;;13099568;22;20011;-49
2021/05/04 05:58:15;;;;;;;3.20;0.40;;;10.30;99.90;;;;;;13097144;22;20020;-49
2021/05/04 06:03:16;;;;;;;4.00;0.60;;;10.20;99.90;;;;;;13098288;22;20319;-49
2021/05/04 06:08:16;;;;;;;2.35;0.90;;;10.40;99.90;;;;;;13098970;22;20083;-48
2021/05/04 06:13:17;;;;;;;1.05;0.40;;;10.40;99.90;;;;;;13099428;22;20460;-48
2021/05/04 06:18:18;;;;;;;5.80;1.33;;;10.40;99.90;;;;;;13095998;22;20007;-49
2021/05/04 06:23:19;;;;;;;1.35;0.55;;;10.30;99.90;;;;;;13051755;22;20531;-48
2021/05/04 06:28:20;;;;;;;8.55;1.13;;;10.30;99.90;;;;;;13088849;22;20052;-49
2021/05/04 06:33:21;;;;;;;2.25;1.30;;;10.30;99.90;;;;;;13089178;22;20041;-48
2021/05/04 06:38:22;;;;;;;1.88;0.68;;;10.30;99.90;;;;;;13088898;22;20042;-48
2021/05/04 06:43:22;;;;;;;4.68;1.17;;;10.30;99.90;;;;;;13090507;22;20022;-48
2021/05/04 06:48:23;;;;;;;14.05;1.77;;;10.20;99.90;;;;;;13085811;22;20014;-48
2021/05/04 06:53:25;;;;;;;2.30;1.02;;;10.20;99.90;;;;;;13091521;22;20091;-49
2021/05/04 06:58:26;;;;;;;6.78;1.15;;;10.20;99.90;;;;;;13097847;22;20003;-48
2021/05/04 07:03:26;;;;;;;5.35;1.10;;;10.20;99.90;;;;;;13090927;22;20425;-48
2021/05/04 07:08:27;;;;;;;7.00;1.27;;;10.00;99.90;;;;;;13089277;22;20543;-48
2021/05/04 07:13:27;;;;;;;4.10;1.25;;;10.10;99.90;;;;;;13082733;22;20468;-48
2021/05/04 07:18:28;;;;;;;5.80;1.67;;;10.10;99.90;;;;;;13094379;22;20459;-48
2021/05/04 07:23:29;;;;;;;3.25;1.15;;;10.20;99.90;;;;;;13095516;22;20105;-48
2021/05/04 07:28:29;;;;;;;7.68;2.33;;;10.30;99.90;;;;;;13095305;22;20409;-48
2021/05/04 07:33:30;;;;;;;4.20;1.30;;;10.30;99.90;;;;;;13093345;22;20350;-48
2021/05/04 07:38:31;;;;;;;2.97;0.90;;;10.50;99.90;;;;;;13090086;22;20054;-48
2021/05/04 07:43:31;;;;;;;3.80;1.23;;;10.50;99.90;;;;;;13087641;22;20050;-48
2021/05/04 07:48:32;;;;;;;2.85;0.75;;;10.40;99.90;;;;;;13093827;22;20064;-48
2021/05/04 07:53:33;;;;;;;11.50;1.38;;;10.60;99.90;;;;;;13094947;22;20309;-48
2021/05/04 07:58:33;;;;;;;8.75;1.67;;;10.80;99.90;;;;;;13096092;22;20083;-48
2021/05/04 08:03:34;;;;;;;3.65;0.55;;;11.00;99.90;;;;;;13095817;22;20015;-48
2021/05/04 08:08:35;;;;;;;6.35;1.27;;;11.10;99.90;;;;;;13090066;22;20002;-48
2021/05/04 08:13:37;;;;;;;7.32;1.17;;;11.00;99.90;;;;;;13095694;22;20410;-48
2021/05/04 08:18:38;;;;;;;5.22;0.85;;;11.00;99.90;;;;;;13094338;22;20090;-48
2021/05/04 08:23:38;;;;;;;6.15;1.77;;;11.00;99.90;;;;;;13094687;22;20096;-48
2021/05/04 08:28:39;;;;;;;2.92;1.00;;;10.80;99.90;;;;;;13094071;22;20099;-48
2021/05/04 08:33:40;;;;;;;12.73;2.67;;;10.70;99.90;;;;;;13094852;22;20463;-48
2021/05/04 08:38:40;;;;;;;5.15;0.93;;;10.50;99.90;;;;;;13092927;22;20046;-48
2021/05/04 08:43:48;;;;;;;0.93;0.40;;;10.30;99.90;;;;;;13093976;22;20102;-48
2021/05/04 08:48:49;;;;;;;8.18;1.20;;;10.20;99.90;;;;;;13093580;22;19999;-48
2021/05/04 08:53:50;;;;;;;3.97;0.63;;;10.10;99.90;;;;;;13095140;22;20003;-48
2021/05/04 08:58:51;;;;;;;1.25;0.25;;;10.10;99.90;;;;;;13092409;22;20014;-48
2021/05/04 09:03:56;;;;;;;2.35;0.90;;;9.90;99.90;;;;;;13095399;22;20505;-48
2021/05/04 09:09:07;;;;;;;2.70;1.13;;;9.70;99.90;;;;;;13097848;22;20003;-48
2021/05/04 09:19:21;;;;;;;3.88;0.65;;;9.90;99.90;;;;;;13098694;22;20019;-49
2021/05/04 09:24:33;;;;;;;2.88;0.20;;;9.70;99.90;;;;;;13098575;22;20011;-49
2021/05/04 09:29:37;;;;;;;7.35;0.80;;;9.80;99.90;;;;;;13097944;22;20010;-49
2021/05/04 09:35:01;;;;;;;8.40;0.73;;;9.70;99.90;;;;;;13093240;22;20063;-49
2021/05/04 09:40:20;;;;;;;1.30;0.30;;;9.70;99.90;;;;;;13091863;22;20022;-49
2021/05/04 09:45:23;;;;;;;3.38;0.25;;;9.20;99.90;;;;;;13091744;22;20022;-49
2021/05/04 09:50:24;;;;;;;1.65;0.32;;;8.80;99.90;;;;;;13095243;22;20007;-49
2021/05/04 09:55:24;;;;;;;2.63;0.35;;;8.90;99.90;;;;;;13099877;22;20007;-49
2021/05/04 10:00:28;;;;;;;3.45;0.35;;;9.30;99.90;;;;;;13096741;22;20090;-49
2021/05/04 10:05:29;;;;;;;2.75;0.45;;;9.90;99.90;;;;;;13094011;22;20311;-48
2021/05/04 10:10:29;;;;;;;0.47;0.15;;;10.00;99.90;;;;;;13092221;22;20086;-49
2021/05/04 10:15:30;;;;;;;1.90;0.25;;;9.90;99.90;;;;;;13089887;22;20430;-48
2021/05/04 10:20:32;;;;;;;1.15;0.22;;;9.80;99.90;;;;;;13093068;22;20028;-48
2021/05/04 10:25:33;;;;;;;4.80;0.47;;;9.80;99.90;;;;;;13093925;22;20021;-49
2021/05/04 10:30:35;;;;;;;0.85;0.10;;;9.80;99.90;;;;;;13094755;22;20059;-48
2021/05/04 10:35:44;;;;;;;4.38;0.32;;;9.70;99.90;;;;;;13094198;22;20087;-48
2021/05/04 10:40:57;;;;;;;1.85;0.45;;;9.80;99.90;;;;;;13087185;22;20056;-49
2021/05/04 10:45:59;;;;;;;1.85;0.28;;;9.80;99.90;;;;;;13093167;22;20337;-48
2021/05/04 10:51:00;;;;;;;0.82;0.30;;;9.90;99.90;;;;;;13090344;22;20352;-48
2021/05/04 10:56:01;;;;;;;1.08;0.73;;;9.90;99.90;;;;;;13094549;22;20007;-48
2021/05/04 11:01:08;;;;;;;1.83;0.45;;;10.00;99.90;;;;;;13097874;22;20057;-48
2021/05/04 11:06:11;;;;;;;2.95;0.30;;;10.20;99.90;;;;;;13098170;22;19999;-48
2021/05/04 11:11:20;;;;;;;2.38;0.47;;;10.10;99.90;;;;;;13094681;22;20474;-48
2021/05/04 11:16:35;;;;;;;1.98;0.40;;;10.20;99.90;;;;;;13096354;22;20007;-48
2021/05/04 11:21:43;;;;;;;1.58;0.47;;;10.20;99.90;;;;;;13092708;22;20517;-48
2021/05/04 11:32:59;;;;;;;0.82;0.28;;;10.30;99.90;;;;;;13143974;22;20030;-87
2021/05/04 11:38:46;;;;;;;1.77;0.70;;;10.60;99.90;;;;;;13079833;22;20015;-87
2021/05/04 11:44:19;;;;;;;2.85;0.20;;;11.00;99.90;;;;;;13027646;22;20030;-86
2021/05/04 11:50:31;;;;;;;1.13;0.30;;;11.00;99.90;;;;;;12888849;23;20148;-86
2021/05/04 11:56:28;;;;;;;1.23;0.32;;;10.80;99.90;;;;;;12876991;23;20094;-87
2021/05/04 12:01:42;;;;;;;1.88;0.40;;;10.70;99.90;;;;;;12859866;22;20056;-88
2021/05/04 12:07:38;;;;;;;1.30;0.30;;;10.60;99.90;;;;;;12876189;23;20154;-87
2021/05/04 12:18:08;;;;;;;2.67;0.35;;;10.50;99.90;;;;;;13027920;22;20034;-48
2021/05/04 12:23:24;;;;;;;2.92;0.35;;;10.50;99.90;;;;;;12978095;22;20018;-47
2021/05/04 12:28:31;;;;;;;0.47;0.17;;;10.50;99.90;;;;;;13003279;22;19999;-48
2021/05/04 12:33:38;;;;;;;0.63;0.20;;;10.40;99.90;;;;;;12977934;22;20431;-48
2021/05/04 12:38:49;;;;;;;1.95;0.40;;;10.00;99.90;;;;;;12981482;22;20014;-48
2021/05/04 12:49:42;;;;;;;1.40;0.40;;;9.60;99.90;;;;;;13008944;22;19999;-48
2021/05/04 12:54:45;;;;;;;1.33;0.47;;;10.20;99.90;;;;;;13037699;22;20386;-48
2021/05/04 12:59:49;;;;;;;0.73;0.30;;;10.30;99.90;;;;;;12981847;22;20342;-49
2021/05/04 13:04:57;;;;;;;0.77;0.30;;;10.40;99.90;;;;;;12984838;22;20053;-48
2021/05/04 13:10:09;;;;;;;1.48;0.30;;;11.00;99.90;;;;;;13030532;22;20022;-49
2021/05/04 13:30:52;;;;;;;1.08;0.25;;;11.10;99.90;;;;;;13098824;22;19999;-49
2021/05/04 13:51:35;;;;;;;3.63;0.77;;;11.20;99.90;;;;;;13089457;22;19907;-48
2021/05/04 13:56:36;;;;;;;4.38;0.40;;;11.00;99.90;;;;;;13094978;22;20039;-49
2021/05/04 14:01:42;;;;;;;0.20;0.05;;;10.50;99.90;;;;;;13099966;22;20872;-49
2021/05/04 14:27:45;;;;;;;1.23;0.30;;;9.80;99.90;;;;;;13096915;22;20011;-49
2021/05/04 14:32:46;;;;;;;3.08;0.68;;;9.90;99.90;;;;;;13096689;22;20084;-49
2021/05/04 14:38:02;;;;;;;1.13;0.50;;;9.90;99.90;;;;;;13093198;22;20018;-49
2021/05/04 15:03:30;;;;;;;1.85;0.80;;;9.90;99.90;;;;;;13092080;22;20009;-49
2021/05/04 15:08:32;;;;;;;0.75;0.43;;;10.10;99.90;;;;;;13094924;22;20106;-49
2021/05/04 15:13:33;;;;;;;2.00;0.52;;;10.30;99.90;;;;;;13096248;22;20487;-49
2021/05/04 15:23:53;;;;;;;;;;;10.60;99.90;;;;;;13094400;22;20014;-48
2021/05/04 15:28:54;;;;;;;1.55;0.40;;;10.90;99.90;;;;;;13092890;22;19902;-47
2021/05/04 15:33:54;;;;;;;1.65;0.50;;;11.00;99.90;;;;;;13050685;22;20544;-47
2021/05/04 15:38:55;;;;;;;2.05;0.65;;;10.90;99.90;;;;;;13087098;22;20017;-47
2021/05/04 15:43:56;;;;;;;1.00;0.40;;;10.70;99.90;;;;;;13087287;22;20007;-47
2021/05/04 15:49:09;;;;;;;1.83;0.82;;;10.70;99.90;;;;;;13089041;22;20502;-47
2021/05/04 15:54:33;;;;;;;5.15;0.55;;;10.60;99.90;;;;;;13077861;22;20568;-49
2021/05/04 16:10:09;;;;;;;1.33;0.60;;;10.70;99.90;;;;;;13090732;22;20049;-47
2021/05/04 16:15:11;;;;;;;1.30;0.38;;;10.80;99.90;;;;;;13095823;22;20308;-47
2021/05/04 16:20:44;;;;;;;1.23;0.45;;;10.80;99.90;;;;;;13091442;22;20057;-47
2021/05/04 16:30:51;;;;;;;1.38;0.70;;;10.90;99.90;;;;;;13077614;22;20106;-47
2021/05/04 16:35:52;;;;;;;1.20;0.65;;;11.00;99.90;;;;;;13080537;22;20090;-47
2021/05/04 16:40:53;;;;;;;3.08;0.82;;;10.90;99.90;;;;;;13078463;22;20736;-47
2021/05/04 16:46:03;;;;;;;2.05;0.70;;;10.90;99.90;;;;;;13082322;22;20011;-47
2021/05/04 16:51:04;;;;;;;3.38;1.25;;;10.80;99.90;;;;;;13079874;22;20014;-47
2021/05/04 16:56:05;;;;;;;3.85;0.73;;;10.70;99.90;;;;;;13091622;22;20018;-47
2021/05/04 17:01:09;;;;;;;0.93;0.38;;;10.60;99.90;;;;;;13092050;22;20006;-47
2021/05/04 17:06:16;;;;;;;1.48;0.50;;;10.60;99.90;;;;;;13089775;22;20042;-47
2021/05/04 17:11:17;;;;;;;1.27;0.50;;;10.50;99.90;;;;;;13086270;22;20050;-47
2021/05/04 17:16:18;;;;;;;3.28;0.60;;;10.60;99.90;;;;;;13085976;22;20261;-47
2021/05/04 17:21:18;;;;;;;1.00;0.38;;;10.60;99.90;;;;;;13078684;22;20002;-47
2021/05/04 17:26:19;;;;;;;1.23;0.50;;;10.50;99.90;;;;;;13084854;22;20017;-48
2021/05/04 17:31:20;;;;;;;0.98;0.40;;;10.60;99.90;;;;;;13080949;22;20068;-47
2021/05/04 17:36:20;;;;;;;1.08;0.50;;;10.50;99.90;;;;;;13085941;22;20064;-47
2021/05/04 17:41:22;;;;;;;1.80;0.90;;;10.40;99.90;;;;;;13085567;22;20018;-47
2021/05/04 17:46:22;;;;;;;1.20;0.50;;;10.30;99.90;;;;;;13087831;22;20002;-47
2021/05/04 17:51:23;;;;;;;2.42;0.50;;;10.20;99.90;;;;;;13077331;22;20234;-47
2021/05/04 17:56:24;;;;;;;3.13;0.43;;;10.00;99.90;;;;;;13082193;22;20007;-49
2021/05/04 18:01:24;;;;;;;0.55;0.35;;;9.90;99.90;;;;;;13085751;22;20041;-47
2021/05/04 18:06:28;;;;;;;0.80;0.40;;;10.00;99.90;;;;;;13083583;22;20312;-47
2021/05/04 18:11:30;;;;;;;1.63;0.43;;;9.90;99.90;;;;;;13086560;22;20454;-47
2021/05/04 18:21:50;;;;;;;0.90;0.30;;;9.80;99.90;;;;;;13072072;22;20072;-47
2021/05/04 18:26:51;;;;;;;0.68;0.20;;;9.70;99.90;;;;;;13084667;22;20032;-47
2021/05/04 18:31:54;;;;;;;0.95;0.38;;;9.60;99.90;;;;;;13086837;22;20646;-47
2021/05/04 19:29:33;;;;;;;2.13;0.20;;;8.60;99.90;;;;;;13040259;22;20015;-47
2021/05/04 20:11:56;;;;;;;0.50;0.30;;;8.00;99.90;;;;;;13084153;22;20030;-47
2021/05/04 20:16:58;;;;;;;0.70;0.22;;;8.00;99.90;;;;;;13084282;22;20255;-47
2021/05/04 20:21:59;;;;;;;0.35;0.17;;;7.80;99.90;;;;;;13083892;22;20007;-47
2021/05/04 20:27:00;;;;;;;1.40;0.40;;;7.70;99.90;;;;;;13076841;22;20006;-49
2021/05/04 20:32:00;;;;;;;7.75;0.45;;;7.70;99.90;;;;;;13081820;22;20050;-49
2021/05/04 20:37:01;;;;;;;0.20;0.10;;;7.70;99.90;;;;;;13089215;22;20082;-49
2021/05/04 20:42:01;;;;;;;2.38;0.38;;;7.70;99.90;;;;;;13091927;22;20017;-49
2021/05/04 20:47:02;;;;;;;2.03;0.28;;;7.60;99.90;;;;;;13090613;22;20457;-49
2021/05/04 20:52:03;;;;;;;0.88;0.43;;;7.50;99.90;;;;;;13087861;22;20018;-49
2021/05/04 20:57:04;;;;;;;0.70;0.20;;;7.40;99.90;;;;;;13089777;22;20011;-49
2021/05/04 21:02:05;;;;;;;0.45;0.20;;;7.40;99.90;;;;;;13093850;22;20010;-49
2021/05/04 21:07:08;;;;;;;0.52;0.30;;;7.30;99.90;;;;;;13093394;22;19999;-49
2021/05/04 21:17:10;;;;;;;0.50;0.20;;;7.30;99.90;;;;;;13096551;22;20155;-49
2021/05/04 21:22:30;;;;;;;0.98;0.30;;;7.30;99.90;;;;;;13095836;22;20418;-49
2021/05/04 21:27:33;;;;;;;1.23;0.35;;;7.20;99.90;;;;;;13093189;22;20018;-49
2021/05/04 21:32:33;;;;;;;1.23;0.20;;;7.10;99.90;;;;;;13094651;22;20442;-49
2021/05/04 21:37:35;;;;;;;2.85;0.63;;;7.20;99.90;;;;;;13096365;22;20172;-49
2021/05/04 21:42:35;;;;;;;3.00;0.30;;;7.30;99.90;;;;;;13095120;22;20090;-49
2021/05/04 21:47:36;;;;;;;2.65;0.25;;;7.40;99.90;;;;;;13094821;22;20058;-49
2021/05/04 21:52:37;;;;;;;1.08;0.35;;;7.40;99.90;;;;;;13095435;22;20011;-49
2021/05/04 21:57:38;;;;;;;2.33;0.30;;;7.40;99.90;;;;;;13094710;22;20018;-49
2021/05/04 22:02:38;;;;;;;3.78;0.38;;;7.40;99.90;;;;;;13091322;22;20500;-49
2021/05/04 22:07:40;;;;;;;5.25;0.75;;;7.40;99.90;;;;;;13093354;22;20095;-49
2021/05/04 22:12:41;;;;;;;2.63;0.22;;;7.40;99.90;;;;;;13093073;22;20022;-49
2021/05/04 22:38:50;;;;;;;3.70;0.20;;;7.30;99.90;;;;;;13093212;22;20183;-49
2021/05/04 23:20:28;;;;;;;0.65;0.40;;;7.10;99.90;;;;;;13088179;22;20210;-49
2021/05/04 23:25:29;;;;;;;3.17;1.30;;;7.00;99.90;;;;;;13088654;22;20006;-49
2021/05/04 23:30:29;;;;;;;1.30;0.40;;;7.10;99.90;;;;;;13089184;22;20065;-49
2021/05/04 23:35:30;;;;;;;1.27;0.50;;;7.10;99.90;;;;;;13089661;22;20014;-49
2021/05/04 23:40:31;;;;;;;0.65;0.22;;;7.10;99.90;;;;;;13091233;22;20038;-49
2021/05/04 23:45:31;;;;;;;1.42;0.70;;;7.10;99.90;;;;;;13091082;22;20018;-49
2021/05/04 23:50:33;;;;;;;2.75;0.47;;;7.00;99.90;;;;;;13089425;22;20007;-49
2021/05/04 23:55:33;;;;;;;1.02;0.40;;;7.00;99.90;;;;;;13090120;22;20006;-49
